createdAt,value
2019-04-14T00:02:27.225Z,1.40
2019-04-14T00:05:08.277Z,1.35
2019-04-14T00:07:41.103Z,1.32
2019-04-14T00:10:16.052Z,1.36
2019-04-14T00:12:51.439Z,1.34
2019-04-14T00:15:47.051Z,1.33
2019-04-14T00:18:35.875Z,1.31
2019-04-14T00:21:09.038Z,1.23
2019-04-14T00:23:45.602Z,1.24
2019-04-14T00:26:31.562Z,1.43
2019-04-14T00:29:08.865Z,1.48
2019-04-14T00:32:09.435Z,1.48
2019-04-14T00:35:04.414Z,1.39
2019-04-14T00:38:01.232Z,1.42
2019-04-14T00:41:09.699Z,1.46
2019-04-14T00:43:50.914Z,1.47
2019-04-14T00:46:49.598Z,1.47
2019-04-14T00:49:24.716Z,1.42
2019-04-14T00:51:59.307Z,1.38
2019-04-14T00:54:34.427Z,1.43
2019-04-14T00:57:07.353Z,1.40
2019-04-14T00:59:42.763Z,1.47
2019-04-14T01:02:18.911Z,1.37
2019-04-14T01:04:53.391Z,1.31
2019-04-14T01:07:41.299Z,1.30
2019-04-14T01:10:14.881Z,1.19
2019-04-14T01:12:49.600Z,1.16
2019-04-14T01:15:22.284Z,1.12
2019-04-14T01:17:55.537Z,1.06
2019-04-14T01:20:30.109Z,1.08
2019-04-14T01:23:02.661Z,0.98
2019-04-14T01:25:35.394Z,0.90
2019-04-14T01:28:09.011Z,0.94
2019-04-14T01:30:43.706Z,0.89
2019-04-14T01:33:18.475Z,0.91
2019-04-14T01:35:53.074Z,0.94
2019-04-14T01:38:25.731Z,0.92
2019-04-14T01:40:59.910Z,0.92
2019-04-14T01:43:34.190Z,0.94
2019-04-14T01:46:14.758Z,0.95
2019-04-14T01:48:51.891Z,0.95
2019-04-14T01:51:35.986Z,0.93
2019-04-14T01:54:19.235Z,0.96
2019-04-14T01:57:13.210Z,1.02
2019-04-14T01:59:46.703Z,1.07
2019-04-14T02:02:22.683Z,1.10
2019-04-14T02:04:55.407Z,1.17
2019-04-14T02:07:29.748Z,1.19
2019-04-14T02:10:03.910Z,1.20
2019-04-14T02:12:36.624Z,1.18
2019-04-14T02:15:11.276Z,1.17
2019-04-14T02:17:46.107Z,1.21
2019-04-14T02:20:18.871Z,1.28
2019-04-14T02:22:51.567Z,1.27
2019-04-14T02:25:25.315Z,1.33
2019-04-14T02:28:00.128Z,1.37
2019-04-14T02:30:41.572Z,1.41
2019-04-14T02:33:44.459Z,1.49
2019-04-14T02:37:04.717Z,1.42
2019-04-14T02:40:33.386Z,1.44
2019-04-14T02:47:14.903Z,1.36
2019-04-14T02:50:38.613Z,1.49
2019-04-14T02:53:59.376Z,1.57
2019-04-14T03:00:23.907Z,1.67
2019-04-14T03:03:41.356Z,1.55
2019-04-14T03:06:50.161Z,1.51
2019-04-14T03:10:20.638Z,1.56
2019-04-14T03:13:28.828Z,1.53
2019-04-14T03:17:11.123Z,1.66
2019-04-14T03:20:47.517Z,1.67
2019-04-14T03:24:21.739Z,1.76
2019-04-14T03:27:41.890Z,1.69
2019-04-14T03:37:39.513Z,1.82
2019-04-14T03:40:54.219Z,1.67
2019-04-14T03:44:28.569Z,1.80
2019-04-14T03:47:56.259Z,1.76
2019-04-14T03:51:42.102Z,1.68
2019-04-14T03:54:44.120Z,1.67
2019-04-14T03:57:31.196Z,1.79
2019-04-14T04:00:09.501Z,1.95
2019-04-14T04:02:44.449Z,1.99
2019-04-14T04:05:17.385Z,1.94
2019-04-14T04:07:50.242Z,1.96
2019-04-14T04:10:27.061Z,1.91
2019-04-14T04:12:59.764Z,1.97
2019-04-14T04:15:34.264Z,2.05
2019-04-14T04:18:15.547Z,2.13
2019-04-14T04:20:54.486Z,2.07
2019-04-14T04:23:35.634Z,2.06
2019-04-14T04:26:17.422Z,2.04
2019-04-14T04:28:59.059Z,2.04
2019-04-14T04:31:37.487Z,2.09
2019-04-14T04:34:32.358Z,2.05
2019-04-14T04:37:13.102Z,2.10
2019-04-14T04:39:48.112Z,2.10
2019-04-14T04:42:20.471Z,2.16
2019-04-14T04:44:53.345Z,2.16
2019-04-14T04:47:25.842Z,2.14
2019-04-14T04:50:00.050Z,2.11
2019-04-14T04:52:36.528Z,2.19
2019-04-14T04:55:09.476Z,2.35
2019-04-14T04:57:46.015Z,2.41
2019-04-14T05:00:20.482Z,2.49
2019-04-14T05:02:53.601Z,2.57
2019-04-14T05:05:49.257Z,2.55
2019-04-14T05:08:24.061Z,2.62
2019-04-14T05:11:05.844Z,2.62
2019-04-14T05:13:40.250Z,2.65
2019-04-14T05:16:12.850Z,2.75
2019-04-14T05:18:46.819Z,2.75
2019-04-14T05:21:19.345Z,2.74
2019-04-14T05:23:51.858Z,2.85
2019-04-14T05:26:28.743Z,2.87
2019-04-14T05:29:03.492Z,2.92
2019-04-14T05:31:44.653Z,2.91
2019-04-14T05:34:21.568Z,2.97
2019-04-14T05:36:56.378Z,2.94
2019-04-14T05:39:29.101Z,3.02
2019-04-14T05:42:12.085Z,3.05
2019-04-14T05:44:51.518Z,3.17
2019-04-14T05:47:26.219Z,3.22
2019-04-14T05:49:59.423Z,3.20
2019-04-14T05:52:32.056Z,3.21
2019-04-14T05:55:06.625Z,3.18
2019-04-14T05:57:41.706Z,3.19
2019-04-14T06:00:19.068Z,3.25
2019-04-14T06:02:52.722Z,3.25
2019-04-14T06:05:28.242Z,3.26
2019-04-14T06:08:01.857Z,3.35
2019-04-14T06:10:34.887Z,3.41
2019-04-14T06:13:07.828Z,3.43
2019-04-14T06:15:41.020Z,3.49
2019-04-14T06:18:13.639Z,3.58
2019-04-14T06:20:46.611Z,3.67
2019-04-14T06:23:22.326Z,3.63
2019-04-14T06:25:54.790Z,3.57
2019-04-14T06:28:28.202Z,3.59
2019-04-14T06:31:12.461Z,3.56
2019-04-14T06:33:55.219Z,3.60
2019-04-14T06:36:33.507Z,3.66
2019-04-14T06:39:12.529Z,3.74
2019-04-14T06:41:45.094Z,3.82
2019-04-14T06:44:17.722Z,3.85
2019-04-14T06:46:51.046Z,3.88
2019-04-14T06:49:23.913Z,3.90
2019-04-14T06:51:56.467Z,3.91
2019-04-14T06:54:29.463Z,3.92
2019-04-14T06:57:14.285Z,3.96
2019-04-14T06:59:52.178Z,4.05
2019-04-14T07:02:26.580Z,4.04
2019-04-14T07:05:04.303Z,4.06
2019-04-14T07:07:37.027Z,4.14
2019-04-14T07:10:09.722Z,4.18
2019-04-14T07:12:43.546Z,4.21
2019-04-14T07:15:17.111Z,4.23
2019-04-14T07:17:49.842Z,4.27
2019-04-14T07:20:22.707Z,4.29
2019-04-14T07:22:55.299Z,4.31
2019-04-14T07:25:27.987Z,4.33
2019-04-14T07:28:00.775Z,4.37
2019-04-14T07:30:39.436Z,4.47
2019-04-14T07:33:27.659Z,4.53
2019-04-14T07:36:30.344Z,4.63
2019-04-14T07:39:11.715Z,4.78
2019-04-14T07:41:51.800Z,4.99
2019-04-14T07:44:46.161Z,5.24
2019-04-14T07:47:25.772Z,5.85
2019-04-14T07:50:18.350Z,6.68
2019-04-14T07:52:59.982Z,7.10
2019-04-14T07:55:40.291Z,7.42
2019-04-14T07:58:18.280Z,7.46
2019-04-14T08:01:10.210Z,7.61
2019-04-14T08:03:50.006Z,8.02
2019-04-14T08:06:23.543Z,8.06
2019-04-14T08:08:57.030Z,8.09
2019-04-14T08:11:29.643Z,7.96
2019-04-14T08:14:05.287Z,8.07
2019-04-14T08:16:38.659Z,8.09
2019-04-14T08:19:11.239Z,8.15
2019-04-14T08:21:44.457Z,8.07
2019-04-14T08:24:18.227Z,8.10
2019-04-14T08:26:50.937Z,8.21
2019-04-14T08:29:28.062Z,8.37
2019-04-14T08:32:04.259Z,8.49
2019-04-14T08:34:36.834Z,8.50
2019-04-14T08:37:13.798Z,8.65
2019-04-14T08:39:48.414Z,8.82
2019-04-14T08:42:52.699Z,9.00
2019-04-14T08:45:56.639Z,8.88
2019-04-14T08:49:01.965Z,8.82
2019-04-14T08:52:02.769Z,9.00
2019-04-14T08:54:46.843Z,9.14
2019-04-14T08:57:43.035Z,9.38
2019-04-14T09:00:27.877Z,9.58
2019-04-14T09:03:22.114Z,9.53
2019-04-14T09:06:05.385Z,9.62
2019-04-14T09:08:45.150Z,9.83
2019-04-14T09:11:32.837Z,9.75
2019-04-14T09:14:06.479Z,9.96
2019-04-14T09:16:39.620Z,10.17
2019-04-14T09:19:17.595Z,10.24
2019-04-14T09:21:52.134Z,10.18
2019-04-14T09:24:25.696Z,10.32
2019-04-14T09:27:02.128Z,10.48
2019-04-14T09:29:35.034Z,10.53
2019-04-14T09:32:12.951Z,10.56
2019-04-14T09:34:46.755Z,10.64
2019-04-14T09:37:20.848Z,10.75
2019-04-14T09:39:54.932Z,10.66
2019-04-14T09:42:27.585Z,10.69
2019-04-14T09:45:02.557Z,10.61
2019-04-14T09:47:36.037Z,10.53
2019-04-14T09:50:09.340Z,10.83
2019-04-14T09:52:42.164Z,11.14
2019-04-14T09:55:17.475Z,11.09
2019-04-14T09:57:51.086Z,11.05
2019-04-14T10:00:23.844Z,11.05
2019-04-14T10:02:57.331Z,10.98
2019-04-14T10:05:30.931Z,11.12
2019-04-14T10:08:07.046Z,11.29
2019-04-14T10:10:41.977Z,11.29
2019-04-14T10:13:15.065Z,11.37
2019-04-14T10:15:48.283Z,11.69
2019-04-14T10:18:22.162Z,11.97
2019-04-14T10:20:54.710Z,11.91
2019-04-14T10:23:29.054Z,11.94
2019-04-14T10:26:01.915Z,11.89
2019-04-14T10:28:34.534Z,11.94
2019-04-14T10:31:07.134Z,12.05
2019-04-14T10:33:40.813Z,12.40
2019-04-14T10:36:13.403Z,12.69
2019-04-14T10:38:47.011Z,12.55
2019-04-14T10:41:19.975Z,12.40
2019-04-14T10:43:53.594Z,12.23
2019-04-14T10:46:27.046Z,12.36
2019-04-14T10:49:00.153Z,12.57
2019-04-14T10:51:37.587Z,12.54
2019-04-14T10:54:10.615Z,12.40
2019-04-14T10:56:43.686Z,12.67
2019-04-14T10:59:18.973Z,13.18
2019-04-14T11:01:52.137Z,13.28
2019-04-14T11:04:26.369Z,13.26
2019-04-14T11:07:07.068Z,13.31
2019-04-14T11:09:43.240Z,13.20
2019-04-14T11:12:19.971Z,13.21
2019-04-14T11:14:52.686Z,13.48
2019-04-14T11:17:26.304Z,13.31
2019-04-14T11:20:01.991Z,13.16
2019-04-14T11:22:37.061Z,12.99
2019-04-14T11:25:09.711Z,12.91
2019-04-14T11:27:43.269Z,12.92
2019-04-14T11:30:19.964Z,12.88
2019-04-14T11:33:04.514Z,13.13
2019-04-14T11:35:49.655Z,13.80
2019-04-14T11:38:36.041Z,13.70
2019-04-14T11:41:19.352Z,13.62
2019-04-14T11:43:52.864Z,13.64
2019-04-14T11:46:27.664Z,13.54
2019-04-14T11:49:02.752Z,13.44
2019-04-14T11:51:37.631Z,13.23
2019-04-14T11:54:13.624Z,13.18
2019-04-14T11:56:46.838Z,13.00
2019-04-14T11:59:31.124Z,12.82
2019-04-14T12:02:19.610Z,12.72
2019-04-14T12:05:07.137Z,12.82
2019-04-14T12:07:50.080Z,12.98
2019-04-14T12:10:26.616Z,13.00
2019-04-14T12:13:07.256Z,13.01
2019-04-14T12:15:47.414Z,13.07
2019-04-14T12:18:27.532Z,13.18
2019-04-14T12:21:00.153Z,13.27
2019-04-14T12:23:39.045Z,13.16
2019-04-14T12:26:14.652Z,12.90
2019-04-14T12:28:49.349Z,12.90
2019-04-14T12:31:24.103Z,12.88
2019-04-14T12:34:11.724Z,13.00
2019-04-14T12:36:51.418Z,12.88
2019-04-14T12:39:30.064Z,12.96
2019-04-14T12:42:38.002Z,13.26
2019-04-14T12:45:21.312Z,13.21
2019-04-14T12:48:02.196Z,13.19
2019-04-14T12:50:46.190Z,13.20
2019-04-14T12:53:19.216Z,13.09
2019-04-14T12:55:53.845Z,13.10
2019-04-14T12:58:38.928Z,13.04
2019-04-14T13:01:13.082Z,13.05
2019-04-14T13:03:46.202Z,13.05
2019-04-14T13:06:20.467Z,13.11
2019-04-14T13:08:53.676Z,12.91
2019-04-14T13:11:32.163Z,12.70
2019-04-14T13:14:11.912Z,12.94
2019-04-14T13:16:48.842Z,12.88
2019-04-14T13:19:30.426Z,12.85
2019-04-14T13:22:03.155Z,13.03
2019-04-14T13:24:40.659Z,13.23
2019-04-14T13:27:14.370Z,13.46
2019-04-14T13:29:55.495Z,13.80
2019-04-14T13:32:35.987Z,14.08
2019-04-14T13:35:10.744Z,14.39
2019-04-14T13:37:47.834Z,14.87
2019-04-14T13:40:21.899Z,15.17
2019-04-14T13:42:54.437Z,15.32
2019-04-14T13:45:35.822Z,15.03
2019-04-14T13:48:34.477Z,14.40
2019-04-14T13:51:15.934Z,14.07
2019-04-14T13:53:51.091Z,13.95
2019-04-14T13:56:25.294Z,14.15
2019-04-14T13:58:59.929Z,14.53
2019-04-14T14:01:34.560Z,14.53
2019-04-14T14:04:08.919Z,14.59
2019-04-14T14:06:41.768Z,14.78
2019-04-14T14:09:14.790Z,14.59
2019-04-14T14:12:00.736Z,14.28
2019-04-14T14:14:50.835Z,14.28
2019-04-14T14:17:39.841Z,14.24
2019-04-14T14:20:27.262Z,14.13
2019-04-14T14:23:31.836Z,14.38
2019-04-14T14:26:30.750Z,14.80
2019-04-14T14:29:05.870Z,14.62
2019-04-14T14:31:39.606Z,14.60
2019-04-14T14:34:20.545Z,14.79
2019-04-14T14:36:55.544Z,14.74
2019-04-14T14:39:35.547Z,14.81
2019-04-14T14:42:12.438Z,14.78
2019-04-14T14:45:19.683Z,14.76
2019-04-14T14:48:11.133Z,14.30
2019-04-14T14:50:52.449Z,14.12
2019-04-14T14:53:34.026Z,14.46
2019-04-14T14:56:30.445Z,14.91
2019-04-14T14:59:03.656Z,15.20
2019-04-14T15:01:39.228Z,14.89
2019-04-14T15:04:15.772Z,14.35
2019-04-14T15:06:50.115Z,13.63
2019-04-14T15:09:26.609Z,13.64
2019-04-14T15:12:00.988Z,13.84
2019-04-14T15:14:36.425Z,13.82
2019-04-14T15:17:15.766Z,13.90
2019-04-14T15:19:50.692Z,13.88
2019-04-14T15:22:24.169Z,14.12
2019-04-14T15:24:59.193Z,14.44
2019-04-14T15:27:36.670Z,14.33
2019-04-14T15:30:15.898Z,14.06
2019-04-14T15:32:55.070Z,13.77
2019-04-14T15:35:30.199Z,13.51
2019-04-14T15:38:06.034Z,13.35
2019-04-14T15:40:39.120Z,12.90
2019-04-14T15:43:15.808Z,12.42
2019-04-14T15:45:54.289Z,12.22
2019-04-14T15:48:39.636Z,12.53
2019-04-14T15:51:33.360Z,13.03
2019-04-14T15:54:11.629Z,13.07
2019-04-14T15:56:53.242Z,12.90
2019-04-14T15:59:40.919Z,12.80
2019-04-14T16:02:39.456Z,12.78
2019-04-14T16:05:35.642Z,12.49
2019-04-14T16:08:24.755Z,12.22
2019-04-14T16:11:03.515Z,12.06
2019-04-14T16:13:45.662Z,12.07
2019-04-14T16:16:41.452Z,11.98
2019-04-14T16:19:27.295Z,11.84
2019-04-14T16:22:01.646Z,11.70
2019-04-14T16:24:56.665Z,11.77
2019-04-14T16:27:39.605Z,11.55
2019-04-14T16:30:29.190Z,11.38
2019-04-14T16:33:10.856Z,11.16
2019-04-14T16:35:46.742Z,11.24
2019-04-14T16:38:21.245Z,11.08
2019-04-14T16:40:55.878Z,10.73
2019-04-14T16:43:29.379Z,10.38
2019-04-14T16:46:02.719Z,10.23
2019-04-14T16:48:44.546Z,10.08
2019-04-14T16:51:24.117Z,9.93
2019-04-14T16:54:03.325Z,9.88
2019-04-14T16:56:50.280Z,9.88
2019-04-14T16:59:22.977Z,9.96
2019-04-14T17:02:10.170Z,10.23
2019-04-14T17:04:45.540Z,10.60
2019-04-14T17:07:19.837Z,10.74
2019-04-14T17:09:53.724Z,10.80
2019-04-14T17:12:27.073Z,10.59
2019-04-14T17:15:15.957Z,10.38
2019-04-14T17:17:56.550Z,10.04
2019-04-14T17:20:37.259Z,9.80
2019-04-14T17:23:30.986Z,9.60
2019-04-14T17:26:09.781Z,9.47
2019-04-14T17:29:02.599Z,9.38
2019-04-14T17:31:56.347Z,9.36
2019-04-14T17:35:03.038Z,9.29
2019-04-14T17:38:00.648Z,9.23
2019-04-14T17:40:54.509Z,9.24
2019-04-14T17:43:35.610Z,9.07
2019-04-14T17:46:29.060Z,8.98
2019-04-14T17:49:18.656Z,8.99
2019-04-14T17:52:14.991Z,8.89
2019-04-14T17:54:54.076Z,8.78
2019-04-14T17:57:48.456Z,8.71
2019-04-14T18:00:43.932Z,8.65
2019-04-14T18:03:27.505Z,8.62
2019-04-14T18:06:08.842Z,8.58
2019-04-14T18:09:00.797Z,8.52
2019-04-14T18:11:56.703Z,8.56
2019-04-14T18:14:45.625Z,8.45
2019-04-14T18:17:28.511Z,8.44
2019-04-14T18:20:09.450Z,8.44
2019-04-14T18:22:42.050Z,8.43
2019-04-14T18:25:18.187Z,8.42
2019-04-14T18:28:10.329Z,8.37
2019-04-14T18:31:01.377Z,8.31
2019-04-14T18:33:42.448Z,8.17
2019-04-14T18:36:34.450Z,8.09
2019-04-14T18:39:34.567Z,8.12
2019-04-14T18:42:28.164Z,8.05
2019-04-14T18:45:20.895Z,8.06
2019-04-14T18:48:03.366Z,8.04
2019-04-14T18:50:42.957Z,7.97
2019-04-14T18:53:24.836Z,7.97
2019-04-14T18:56:11.560Z,7.98
2019-04-14T18:58:58.081Z,7.93
2019-04-14T19:01:38.219Z,7.87
2019-04-14T19:04:10.833Z,7.85
2019-04-14T19:06:43.797Z,7.83
2019-04-14T19:09:18.393Z,7.80
2019-04-14T19:12:13.294Z,7.74
2019-04-14T19:15:06.765Z,7.80
2019-04-14T19:17:49.779Z,7.82
2019-04-14T19:20:31.686Z,7.78
2019-04-14T19:23:06.148Z,7.82
2019-04-14T19:25:39.452Z,7.75
2019-04-14T19:28:12.375Z,7.72
2019-04-14T19:30:45.354Z,7.66
2019-04-14T19:33:18.361Z,7.62
2019-04-14T19:35:55.332Z,7.61
2019-04-14T19:38:31.505Z,7.76
2019-04-14T19:41:05.452Z,7.63
2019-04-14T19:43:46.486Z,7.74
2019-04-14T19:46:20.636Z,7.76
2019-04-14T19:48:54.800Z,7.73
2019-04-14T19:51:34.347Z,7.63
2019-04-14T19:54:08.381Z,7.63
2019-04-14T19:56:42.664Z,7.65
2019-04-14T19:59:21.203Z,7.56
2019-04-14T20:01:57.943Z,7.54
2019-04-14T20:04:34.954Z,7.50
2019-04-14T20:07:08.078Z,7.44
2019-04-14T20:09:41.284Z,7.47
2019-04-14T20:12:14.922Z,7.47
2019-04-14T20:14:47.807Z,7.43
2019-04-14T20:17:40.873Z,7.38
2019-04-14T20:20:24.454Z,7.21
2019-04-14T20:23:19.003Z,7.15
2019-04-14T20:26:24.692Z,7.05
2019-04-14T20:29:05.092Z,7.01
2019-04-14T20:31:51.867Z,6.94
2019-04-14T20:34:25.429Z,6.87
2019-04-14T20:36:59.252Z,6.85
2019-04-14T20:39:33.529Z,6.80
2019-04-14T20:42:07.375Z,6.77
2019-04-14T20:44:40.387Z,6.74
2019-04-14T20:47:13.128Z,6.67
2019-04-14T20:49:45.800Z,6.59
2019-04-14T20:52:18.772Z,6.48
2019-04-14T20:54:51.523Z,6.39
2019-04-14T20:57:24.146Z,6.32
2019-04-14T21:00:01.120Z,6.19
2019-04-14T21:02:56.158Z,6.04
2019-04-14T21:05:52.829Z,5.89
2019-04-14T21:08:55.183Z,5.85
2019-04-14T21:11:35.351Z,5.79
2019-04-14T21:14:17.492Z,5.72
2019-04-14T21:17:03.482Z,5.61
2019-04-14T21:19:47.565Z,5.61
2019-04-14T21:22:34.791Z,5.59
2019-04-14T21:25:28.044Z,5.58
2019-04-14T21:28:28.068Z,5.55
2019-04-14T21:31:08.633Z,5.57
2019-04-14T21:33:56.512Z,5.66
2019-04-14T21:36:37.342Z,5.70
2019-04-14T21:39:31.833Z,5.71
2019-04-14T21:42:19.567Z,5.77
2019-04-14T21:44:53.915Z,5.62
2019-04-14T21:47:30.970Z,5.50
2019-04-14T21:50:07.390Z,5.42
2019-04-14T21:52:43.691Z,5.26
2019-04-14T21:55:22.040Z,5.11
2019-04-14T21:58:03.834Z,5.12
2019-04-14T22:01:40.815Z,4.96
2019-04-14T22:04:32.031Z,4.83
2019-04-14T22:07:19.863Z,4.77
2019-04-14T22:09:56.750Z,4.78
2019-04-14T22:12:35.742Z,4.97
2019-04-14T22:15:08.543Z,5.09
2019-04-14T22:17:45.365Z,5.14
2019-04-14T22:20:17.966Z,5.17
2019-04-14T22:22:50.672Z,5.21
2019-04-14T22:25:24.213Z,5.22
2019-04-14T22:27:56.926Z,5.34
2019-04-14T22:30:29.836Z,5.33
2019-04-14T22:33:03.703Z,5.32
2019-04-14T22:35:37.682Z,5.37
2019-04-14T22:38:10.766Z,5.45
2019-04-14T22:40:43.721Z,5.55
2019-04-14T22:43:17.715Z,5.64
2019-04-14T22:45:50.434Z,5.79
2019-04-14T22:48:23.291Z,5.90
2019-04-14T22:50:55.963Z,5.97
2019-04-14T22:53:29.187Z,6.02
2019-04-14T22:56:02.299Z,5.99
2019-04-14T22:58:34.819Z,5.91
2019-04-14T23:01:19.266Z,5.90
2019-04-14T23:04:12.483Z,5.84
2019-04-14T23:07:06.155Z,5.92
2019-04-14T23:09:53.418Z,5.87
2019-04-14T23:12:31.562Z,5.81
2019-04-14T23:15:25.739Z,5.77
2019-04-14T23:18:22.828Z,5.81
2019-04-14T23:21:16.887Z,5.77
2019-04-14T23:24:10.746Z,5.82
2019-04-14T23:26:52.385Z,5.79
2019-04-14T23:29:25.873Z,5.91
2019-04-14T23:31:58.783Z,5.90
2019-04-14T23:34:31.997Z,5.83
2019-04-14T23:37:05.407Z,5.76
2019-04-14T23:39:38.264Z,5.77
2019-04-14T23:42:10.853Z,5.76
2019-04-14T23:44:46.600Z,5.69
2019-04-14T23:47:19.422Z,5.65
2019-04-14T23:49:52.011Z,5.62
2019-04-14T23:52:25.973Z,5.56
2019-04-14T23:54:59.020Z,5.51
2019-04-14T23:57:32.003Z,5.49
